sensor_id;sensor_type;location;lat;lon;timestamp;P1;durP1;ratioP1;P2;durP2;ratioP2
5805;SDS011;2929;50.810;8.342;2023-04-30T00:00:59;28.30;;;18.43;;
5805;SDS011;2929;50.810;8.342;2023-04-30T00:03:26;30.70;;;18.70;;
5805;SDS011;2929;50.810;8.342;2023-04-30T00:05:53;24.43;;;17.20;;
5805;SDS011;2929;50.810;8.342;2023-04-30T00:08:20;33.73;;;18.43;;
5805;SDS011;2929;50.810;8.342;2023-04-30T00:10:48;26.73;;;18.50;;
5805;SDS011;2929;50.810;8.342;2023-04-30T00:13:16;23.77;;;16.43;;
5805;SDS011;2929;50.810;8.342;2023-04-30T00:15:43;28.10;;;16.60;;
5805;SDS011;2929;50.810;8.342;2023-04-30T00:18:10;27.93;;;17.80;;
5805;SDS011;2929;50.810;8.342;2023-04-30T00:20:37;28.33;;;18.10;;
5805;SDS011;2929;50.810;8.342;2023-04-30T00:23:04;28.23;;;18.53;;
5805;SDS011;2929;50.810;8.342;2023-04-30T00:25:31;31.00;;;18.23;;
5805;SDS011;2929;50.810;8.342;2023-04-30T00:27:59;24.10;;;14.90;;
5805;SDS011;2929;50.810;8.342;2023-04-30T00:30:26;21.50;;;15.07;;
5805;SDS011;2929;50.810;8.342;2023-04-30T00:32:53;31.27;;;15.83;;
5805;SDS011;2929;50.810;8.342;2023-04-30T00:35:20;24.80;;;16.53;;
5805;SDS011;2929;50.810;8.342;2023-04-30T00:37:47;25.00;;;17.67;;
5805;SDS011;2929;50.810;8.342;2023-04-30T00:40:14;28.40;;;18.37;;
5805;SDS011;2929;50.810;8.342;2023-04-30T00:42:42;25.60;;;16.03;;
5805;SDS011;2929;50.810;8.342;2023-04-30T00:45:10;21.63;;;15.10;;
5805;SDS011;2929;50.810;8.342;2023-04-30T00:47:37;32.27;;;18.40;;
5805;SDS011;2929;50.810;8.342;2023-04-30T00:50:05;29.23;;;18.00;;
5805;SDS011;2929;50.810;8.342;2023-04-30T00:52:33;27.23;;;17.43;;
5805;SDS011;2929;50.810;8.342;2023-04-30T00:55:01;23.97;;;16.63;;
5805;SDS011;2929;50.810;8.342;2023-04-30T00:57:28;23.60;;;15.80;;
5805;SDS011;2929;50.810;8.342;2023-04-30T00:59:55;24.03;;;15.13;;
5805;SDS011;2929;50.810;8.342;2023-04-30T01:02:24;27.30;;;18.87;;
5805;SDS011;2929;50.810;8.342;2023-04-30T01:04:51;31.37;;;19.27;;
5805;SDS011;2929;50.810;8.342;2023-04-30T01:07:18;36.63;;;19.70;;
5805;SDS011;2929;50.810;8.342;2023-04-30T01:09:45;30.43;;;19.10;;
5805;SDS011;2929;50.810;8.342;2023-04-30T01:12:13;42.77;;;22.43;;
5805;SDS011;2929;50.810;8.342;2023-04-30T01:14:49;38.33;;;21.83;;
5805;SDS011;2929;50.810;8.342;2023-04-30T01:17:27;45.27;;;23.67;;
5805;SDS011;2929;50.810;8.342;2023-04-30T01:19:59;52.20;;;24.70;;
5805;SDS011;2929;50.810;8.342;2023-04-30T01:22:34;43.10;;;24.40;;
5805;SDS011;2929;50.810;8.342;2023-04-30T01:25:10;35.70;;;23.40;;
5805;SDS011;2929;50.810;8.342;2023-04-30T01:28:05;36.50;;;21.50;;
5805;SDS011;2929;50.810;8.342;2023-04-30T01:30:34;30.43;;;20.07;;
5805;SDS011;2929;50.810;8.342;2023-04-30T01:33:02;37.20;;;18.77;;
5805;SDS011;2929;50.810;8.342;2023-04-30T01:35:34;28.00;;;17.30;;
5805;SDS011;2929;50.810;8.342;2023-04-30T01:38:18;29.60;;;19.50;;
5805;SDS011;2929;50.810;8.342;2023-04-30T01:40:53;29.63;;;17.57;;
5805;SDS011;2929;50.810;8.342;2023-04-30T01:43:33;31.77;;;17.30;;
5805;SDS011;2929;50.810;8.342;2023-04-30T01:46:08;33.60;;;16.40;;
5805;SDS011;2929;50.810;8.342;2023-04-30T01:48:42;28.43;;;16.17;;
5805;SDS011;2929;50.810;8.342;2023-04-30T01:51:15;25.70;;;13.87;;
5805;SDS011;2929;50.810;8.342;2023-04-30T01:53:48;26.60;;;17.37;;
5805;SDS011;2929;50.810;8.342;2023-04-30T01:56:17;25.60;;;16.43;;
5805;SDS011;2929;50.810;8.342;2023-04-30T01:58:53;32.33;;;18.03;;
5805;SDS011;2929;50.810;8.342;2023-04-30T02:01:25;35.03;;;17.10;;
5805;SDS011;2929;50.810;8.342;2023-04-30T02:03:53;25.47;;;16.60;;
5805;SDS011;2929;50.810;8.342;2023-04-30T02:06:20;25.83;;;16.63;;
5805;SDS011;2929;50.810;8.342;2023-04-30T02:08:50;32.00;;;18.00;;
5805;SDS011;2929;50.810;8.342;2023-04-30T02:11:17;29.80;;;18.67;;
5805;SDS011;2929;50.810;8.342;2023-04-30T02:13:44;28.27;;;16.90;;
5805;SDS011;2929;50.810;8.342;2023-04-30T02:16:12;35.63;;;18.73;;
5805;SDS011;2929;50.810;8.342;2023-04-30T02:18:39;29.73;;;17.90;;
5805;SDS011;2929;50.810;8.342;2023-04-30T02:21:06;28.10;;;18.10;;
5805;SDS011;2929;50.810;8.342;2023-04-30T02:23:33;26.80;;;17.40;;
5805;SDS011;2929;50.810;8.342;2023-04-30T02:26:00;40.10;;;17.20;;
5805;SDS011;2929;50.810;8.342;2023-04-30T02:28:28;30.83;;;18.27;;
5805;SDS011;2929;50.810;8.342;2023-04-30T02:30:55;28.80;;;18.40;;
5805;SDS011;2929;50.810;8.342;2023-04-30T02:33:24;31.53;;;17.30;;
5805;SDS011;2929;50.810;8.342;2023-04-30T02:35:51;31.53;;;17.63;;
5805;SDS011;2929;50.810;8.342;2023-04-30T02:38:19;29.40;;;17.20;;
5805;SDS011;2929;50.810;8.342;2023-04-30T02:40:46;28.30;;;18.90;;
5805;SDS011;2929;50.810;8.342;2023-04-30T02:43:13;33.37;;;18.03;;
5805;SDS011;2929;50.810;8.342;2023-04-30T02:45:40;27.20;;;17.50;;
5805;SDS011;2929;50.810;8.342;2023-04-30T02:48:07;27.97;;;17.97;;
5805;SDS011;2929;50.810;8.342;2023-04-30T02:50:36;25.37;;;15.70;;
5805;SDS011;2929;50.810;8.342;2023-04-30T02:53:04;36.33;;;18.50;;
5805;SDS011;2929;50.810;8.342;2023-04-30T02:55:31;30.63;;;16.53;;
5805;SDS011;2929;50.810;8.342;2023-04-30T02:57:58;28.80;;;17.90;;
5805;SDS011;2929;50.810;8.342;2023-04-30T03:00:25;32.00;;;18.20;;
5805;SDS011;2929;50.810;8.342;2023-04-30T03:02:52;31.37;;;19.70;;
5805;SDS011;2929;50.810;8.342;2023-04-30T03:05:19;36.33;;;18.67;;
5805;SDS011;2929;50.810;8.342;2023-04-30T03:07:47;28.30;;;17.20;;
5805;SDS011;2929;50.810;8.342;2023-04-30T03:10:14;32.23;;;18.70;;
5805;SDS011;2929;50.810;8.342;2023-04-30T03:12:43;31.93;;;18.13;;
5805;SDS011;2929;50.810;8.342;2023-04-30T03:15:12;28.23;;;16.97;;
5805;SDS011;2929;50.810;8.342;2023-04-30T03:17:39;29.17;;;18.47;;
5805;SDS011;2929;50.810;8.342;2023-04-30T03:20:07;35.37;;;21.10;;
5805;SDS011;2929;50.810;8.342;2023-04-30T03:22:34;31.27;;;18.80;;
5805;SDS011;2929;50.810;8.342;2023-04-30T03:25:03;31.13;;;17.90;;
5805;SDS011;2929;50.810;8.342;2023-04-30T03:27:31;29.73;;;16.47;;
5805;SDS011;2929;50.810;8.342;2023-04-30T03:29:58;30.60;;;16.50;;
5805;SDS011;2929;50.810;8.342;2023-04-30T03:32:25;28.60;;;16.23;;
5805;SDS011;2929;50.810;8.342;2023-04-30T03:34:52;29.30;;;17.10;;
5805;SDS011;2929;50.810;8.342;2023-04-30T03:37:19;26.10;;;16.13;;
5805;SDS011;2929;50.810;8.342;2023-04-30T03:39:46;29.37;;;18.27;;
5805;SDS011;2929;50.810;8.342;2023-04-30T03:42:14;29.40;;;16.93;;
5805;SDS011;2929;50.810;8.342;2023-04-30T03:44:41;26.47;;;16.57;;
5805;SDS011;2929;50.810;8.342;2023-04-30T03:47:10;22.70;;;14.90;;
5805;SDS011;2929;50.810;8.342;2023-04-30T03:49:37;26.00;;;16.73;;
5805;SDS011;2929;50.810;8.342;2023-04-30T03:52:04;32.00;;;16.70;;
5805;SDS011;2929;50.810;8.342;2023-04-30T03:54:31;24.30;;;16.40;;
5805;SDS011;2929;50.810;8.342;2023-04-30T03:57:00;28.37;;;17.20;;
5805;SDS011;2929;50.810;8.342;2023-04-30T03:59:29;30.20;;;17.33;;
5805;SDS011;2929;50.810;8.342;2023-04-30T04:01:57;31.83;;;16.80;;
5805;SDS011;2929;50.810;8.342;2023-04-30T04:04:26;41.77;;;16.93;;
5805;SDS011;2929;50.810;8.342;2023-04-30T04:06:53;31.17;;;17.93;;
5805;SDS011;2929;50.810;8.342;2023-04-30T04:09:21;31.83;;;17.83;;
5805;SDS011;2929;50.810;8.342;2023-04-30T04:11:48;29.50;;;17.27;;
5805;SDS011;2929;50.810;8.342;2023-04-30T04:14:15;27.40;;;16.97;;
5805;SDS011;2929;50.810;8.342;2023-04-30T04:16:44;22.87;;;14.33;;
5805;SDS011;2929;50.810;8.342;2023-04-30T04:19:11;20.20;;;14.10;;
5805;SDS011;2929;50.810;8.342;2023-04-30T04:21:38;21.43;;;14.17;;
5805;SDS011;2929;50.810;8.342;2023-04-30T04:24:12;20.47;;;14.00;;
5805;SDS011;2929;50.810;8.342;2023-04-30T04:26:39;31.00;;;14.03;;
5805;SDS011;2929;50.810;8.342;2023-04-30T04:29:08;26.30;;;14.20;;
5805;SDS011;2929;50.810;8.342;2023-04-30T04:31:37;24.00;;;14.00;;
5805;SDS011;2929;50.810;8.342;2023-04-30T04:34:07;25.53;;;15.23;;
5805;SDS011;2929;50.810;8.342;2023-04-30T04:36:34;29.10;;;15.60;;
5805;SDS011;2929;50.810;8.342;2023-04-30T04:39:01;26.43;;;15.70;;
5805;SDS011;2929;50.810;8.342;2023-04-30T04:41:29;28.40;;;17.00;;
5805;SDS011;2929;50.810;8.342;2023-04-30T04:43:57;31.20;;;18.17;;
5805;SDS011;2929;50.810;8.342;2023-04-30T04:46:26;29.57;;;16.00;;
5805;SDS011;2929;50.810;8.342;2023-04-30T04:48:53;27.60;;;16.80;;
5805;SDS011;2929;50.810;8.342;2023-04-30T04:51:22;34.47;;;15.83;;
5805;SDS011;2929;50.810;8.342;2023-04-30T04:53:49;28.97;;;17.40;;
5805;SDS011;2929;50.810;8.342;2023-04-30T04:56:17;26.13;;;15.13;;
5805;SDS011;2929;50.810;8.342;2023-04-30T04:58:44;27.50;;;15.87;;
5805;SDS011;2929;50.810;8.342;2023-04-30T05:01:11;25.60;;;14.87;;
5805;SDS011;2929;50.810;8.342;2023-04-30T05:03:38;21.90;;;14.60;;
5805;SDS011;2929;50.810;8.342;2023-04-30T05:06:06;25.10;;;15.87;;
5805;SDS011;2929;50.810;8.342;2023-04-30T05:08:34;22.57;;;14.37;;
5805;SDS011;2929;50.810;8.342;2023-04-30T05:11:02;25.97;;;15.10;;
5805;SDS011;2929;50.810;8.342;2023-04-30T05:13:29;24.50;;;15.20;;
5805;SDS011;2929;50.810;8.342;2023-04-30T05:15:56;26.80;;;15.97;;
5805;SDS011;2929;50.810;8.342;2023-04-30T05:18:23;30.07;;;15.50;;
5805;SDS011;2929;50.810;8.342;2023-04-30T05:20:50;27.67;;;15.60;;
5805;SDS011;2929;50.810;8.342;2023-04-30T05:23:17;28.20;;;15.37;;
5805;SDS011;2929;50.810;8.342;2023-04-30T05:25:46;22.00;;;13.33;;
5805;SDS011;2929;50.810;8.342;2023-04-30T05:28:17;29.33;;;15.00;;
5805;SDS011;2929;50.810;8.342;2023-04-30T05:30:44;23.50;;;15.33;;
5805;SDS011;2929;50.810;8.342;2023-04-30T05:33:11;28.07;;;15.67;;
5805;SDS011;2929;50.810;8.342;2023-04-30T05:35:38;27.83;;;15.67;;
5805;SDS011;2929;50.810;8.342;2023-04-30T05:38:06;31.40;;;16.63;;
5805;SDS011;2929;50.810;8.342;2023-04-30T05:40:33;27.53;;;17.10;;
5805;SDS011;2929;50.810;8.342;2023-04-30T05:43:01;29.73;;;16.80;;
5805;SDS011;2929;50.810;8.342;2023-04-30T05:45:29;34.73;;;16.37;;
5805;SDS011;2929;50.810;8.342;2023-04-30T05:47:56;27.87;;;17.33;;
5805;SDS011;2929;50.810;8.342;2023-04-30T05:50:23;35.60;;;19.77;;
5805;SDS011;2929;50.810;8.342;2023-04-30T05:52:50;36.73;;;19.03;;
5805;SDS011;2929;50.810;8.342;2023-04-30T05:55:17;33.73;;;18.83;;
5805;SDS011;2929;50.810;8.342;2023-04-30T05:57:44;36.33;;;20.03;;
5805;SDS011;2929;50.810;8.342;2023-04-30T06:00:13;36.57;;;19.40;;
5805;SDS011;2929;50.810;8.342;2023-04-30T06:02:41;29.60;;;18.33;;
5805;SDS011;2929;50.810;8.342;2023-04-30T06:05:08;31.67;;;18.17;;
5805;SDS011;2929;50.810;8.342;2023-04-30T06:07:36;32.30;;;17.60;;
5805;SDS011;2929;50.810;8.342;2023-04-30T06:10:03;32.40;;;17.90;;
5805;SDS011;2929;50.810;8.342;2023-04-30T06:12:31;33.57;;;17.70;;
5805;SDS011;2929;50.810;8.342;2023-04-30T06:14:58;32.50;;;17.93;;
5805;SDS011;2929;50.810;8.342;2023-04-30T06:17:26;26.23;;;14.80;;
5805;SDS011;2929;50.810;8.342;2023-04-30T06:19:53;29.40;;;15.77;;
5805;SDS011;2929;50.810;8.342;2023-04-30T06:22:22;35.10;;;16.27;;
5805;SDS011;2929;50.810;8.342;2023-04-30T06:24:49;27.03;;;15.50;;
5805;SDS011;2929;50.810;8.342;2023-04-30T06:27:16;22.53;;;14.63;;
5805;SDS011;2929;50.810;8.342;2023-04-30T06:29:44;24.97;;;14.83;;
5805;SDS011;2929;50.810;8.342;2023-04-30T06:32:11;24.67;;;13.07;;
5805;SDS011;2929;50.810;8.342;2023-04-30T06:34:39;20.67;;;13.70;;
5805;SDS011;2929;50.810;8.342;2023-04-30T06:37:06;18.97;;;11.30;;
5805;SDS011;2929;50.810;8.342;2023-04-30T06:39:33;16.10;;;10.50;;
5805;SDS011;2929;50.810;8.342;2023-04-30T06:42:00;18.80;;;11.33;;
5805;SDS011;2929;50.810;8.342;2023-04-30T06:44:28;15.77;;;11.33;;
5805;SDS011;2929;50.810;8.342;2023-04-30T06:46:56;21.50;;;10.70;;
5805;SDS011;2929;50.810;8.342;2023-04-30T06:49:24;15.53;;;9.33;;
5805;SDS011;2929;50.810;8.342;2023-04-30T06:51:52;15.50;;;9.70;;
5805;SDS011;2929;50.810;8.342;2023-04-30T06:54:20;16.70;;;9.07;;
5805;SDS011;2929;50.810;8.342;2023-04-30T06:56:48;13.60;;;10.03;;
5805;SDS011;2929;50.810;8.342;2023-04-30T06:59:15;12.13;;;8.57;;
5805;SDS011;2929;50.810;8.342;2023-04-30T07:01:42;12.07;;;8.73;;
5805;SDS011;2929;50.810;8.342;2023-04-30T07:04:09;15.67;;;9.20;;
5805;SDS011;2929;50.810;8.342;2023-04-30T07:06:36;12.73;;;8.97;;
5805;SDS011;2929;50.810;8.342;2023-04-30T07:09:05;14.67;;;8.30;;
5805;SDS011;2929;50.810;8.342;2023-04-30T07:11:32;10.30;;;7.90;;
5805;SDS011;2929;50.810;8.342;2023-04-30T07:13:59;12.07;;;8.30;;
5805;SDS011;2929;50.810;8.342;2023-04-30T07:16:26;8.90;;;7.47;;
5805;SDS011;2929;50.810;8.342;2023-04-30T07:18:53;12.90;;;7.60;;
5805;SDS011;2929;50.810;8.342;2023-04-30T07:21:20;12.30;;;7.80;;
5805;SDS011;2929;50.810;8.342;2023-04-30T07:23:49;14.37;;;7.53;;
5805;SDS011;2929;50.810;8.342;2023-04-30T07:26:18;10.10;;;7.87;;
5805;SDS011;2929;50.810;8.342;2023-04-30T07:28:45;20.77;;;8.20;;
5805;SDS011;2929;50.810;8.342;2023-04-30T07:31:12;17.13;;;8.43;;
5805;SDS011;2929;50.810;8.342;2023-04-30T07:33:39;12.90;;;7.23;;
5805;SDS011;2929;50.810;8.342;2023-04-30T07:36:07;12.93;;;6.70;;
5805;SDS011;2929;50.810;8.342;2023-04-30T07:38:34;13.47;;;8.43;;
5805;SDS011;2929;50.810;8.342;2023-04-30T07:41:01;11.90;;;7.60;;
5805;SDS011;2929;50.810;8.342;2023-04-30T07:43:30;14.27;;;7.10;;
5805;SDS011;2929;50.810;8.342;2023-04-30T07:45:57;12.13;;;7.30;;
5805;SDS011;2929;50.810;8.342;2023-04-30T07:48:24;9.80;;;7.27;;
5805;SDS011;2929;50.810;8.342;2023-04-30T07:50:51;9.20;;;6.97;;
5805;SDS011;2929;50.810;8.342;2023-04-30T07:53:18;11.97;;;7.23;;
5805;SDS011;2929;50.810;8.342;2023-04-30T07:55:45;14.83;;;7.33;;
5805;SDS011;2929;50.810;8.342;2023-04-30T07:58:12;10.20;;;6.43;;
5805;SDS011;2929;50.810;8.342;2023-04-30T08:00:41;16.10;;;7.40;;
5805;SDS011;2929;50.810;8.342;2023-04-30T08:03:08;10.00;;;6.53;;
5805;SDS011;2929;50.810;8.342;2023-04-30T08:05:35;11.13;;;6.93;;
5805;SDS011;2929;50.810;8.342;2023-04-30T08:08:02;7.70;;;6.13;;
5805;SDS011;2929;50.810;8.342;2023-04-30T08:10:30;9.73;;;6.97;;
5805;SDS011;2929;50.810;8.342;2023-04-30T08:12:57;11.20;;;7.23;;
5805;SDS011;2929;50.810;8.342;2023-04-30T08:15:24;9.20;;;6.30;;
5805;SDS011;2929;50.810;8.342;2023-04-30T08:17:53;9.80;;;6.37;;
5805;SDS011;2929;50.810;8.342;2023-04-30T08:20:21;8.40;;;5.97;;
5805;SDS011;2929;50.810;8.342;2023-04-30T08:22:48;10.00;;;7.30;;
5805;SDS011;2929;50.810;8.342;2023-04-30T08:25:16;13.20;;;6.17;;
5805;SDS011;2929;50.810;8.342;2023-04-30T08:27:43;9.80;;;6.00;;
5805;SDS011;2929;50.810;8.342;2023-04-30T08:30:10;10.33;;;5.73;;
5805;SDS011;2929;50.810;8.342;2023-04-30T08:32:38;9.03;;;5.40;;
5805;SDS011;2929;50.810;8.342;2023-04-30T08:35:07;11.97;;;6.13;;
5805;SDS011;2929;50.810;8.342;2023-04-30T08:37:35;10.27;;;5.77;;
5805;SDS011;2929;50.810;8.342;2023-04-30T08:40:03;8.83;;;5.30;;
5805;SDS011;2929;50.810;8.342;2023-04-30T08:42:35;6.30;;;5.27;;
5805;SDS011;2929;50.810;8.342;2023-04-30T08:45:03;9.30;;;5.57;;
5805;SDS011;2929;50.810;8.342;2023-04-30T08:47:31;6.70;;;5.43;;
5805;SDS011;2929;50.810;8.342;2023-04-30T08:49:58;7.10;;;5.10;;
5805;SDS011;2929;50.810;8.342;2023-04-30T08:52:27;6.03;;;4.30;;
5805;SDS011;2929;50.810;8.342;2023-04-30T08:54:55;12.03;;;5.00;;
5805;SDS011;2929;50.810;8.342;2023-04-30T08:57:24;6.20;;;3.83;;
5805;SDS011;2929;50.810;8.342;2023-04-30T08:59:52;5.60;;;4.20;;
5805;SDS011;2929;50.810;8.342;2023-04-30T09:02:20;6.27;;;4.80;;
5805;SDS011;2929;50.810;8.342;2023-04-30T09:04:48;8.80;;;4.03;;
5805;SDS011;2929;50.810;8.342;2023-04-30T09:07:15;9.13;;;4.03;;
5805;SDS011;2929;50.810;8.342;2023-04-30T09:09:45;4.00;;;3.60;;
5805;SDS011;2929;50.810;8.342;2023-04-30T09:12:12;5.30;;;3.47;;
5805;SDS011;2929;50.810;8.342;2023-04-30T09:14:49;4.70;;;3.87;;
5805;SDS011;2929;50.810;8.342;2023-04-30T09:17:24;7.97;;;3.67;;
5805;SDS011;2929;50.810;8.342;2023-04-30T09:19:51;4.13;;;2.40;;
5805;SDS011;2929;50.810;8.342;2023-04-30T09:22:19;3.37;;;2.73;;
5805;SDS011;2929;50.810;8.342;2023-04-30T09:24:48;3.60;;;3.10;;
5805;SDS011;2929;50.810;8.342;2023-04-30T09:27:18;3.30;;;2.97;;
5805;SDS011;2929;50.810;8.342;2023-04-30T09:29:46;5.83;;;2.80;;
5805;SDS011;2929;50.810;8.342;2023-04-30T09:32:13;3.93;;;1.93;;
5805;SDS011;2929;50.810;8.342;2023-04-30T09:34:40;2.60;;;2.03;;
5805;SDS011;2929;50.810;8.342;2023-04-30T09:37:07;3.90;;;2.60;;
5805;SDS011;2929;50.810;8.342;2023-04-30T09:39:45;3.10;;;2.70;;
5805;SDS011;2929;50.810;8.342;2023-04-30T09:42:15;10.10;;;3.10;;
5805;SDS011;2929;50.810;8.342;2023-04-30T09:44:42;3.40;;;2.60;;
5805;SDS011;2929;50.810;8.342;2023-04-30T09:47:10;4.90;;;2.60;;
5805;SDS011;2929;50.810;8.342;2023-04-30T09:49:39;4.30;;;3.20;;
5805;SDS011;2929;50.810;8.342;2023-04-30T09:52:08;2.40;;;2.20;;
5805;SDS011;2929;50.810;8.342;2023-04-30T09:54:36;3.07;;;2.70;;
5805;SDS011;2929;50.810;8.342;2023-04-30T09:57:03;4.40;;;2.17;;
5805;SDS011;2929;50.810;8.342;2023-04-30T09:59:42;6.03;;;2.50;;
5805;SDS011;2929;50.810;8.342;2023-04-30T10:02:12;2.90;;;1.67;;
5805;SDS011;2929;50.810;8.342;2023-04-30T10:04:41;2.57;;;1.50;;
5805;SDS011;2929;50.810;8.342;2023-04-30T10:07:11;1.93;;;1.67;;
5805;SDS011;2929;50.810;8.342;2023-04-30T10:09:43;2.60;;;1.10;;
5805;SDS011;2929;50.810;8.342;2023-04-30T10:12:17;1.17;;;1.03;;
5805;SDS011;2929;50.810;8.342;2023-04-30T10:14:55;0.80;;;0.73;;
5805;SDS011;2929;50.810;8.342;2023-04-30T10:17:30;1.37;;;1.00;;
5805;SDS011;2929;50.810;8.342;2023-04-30T10:20:05;1.23;;;1.13;;
5805;SDS011;2929;50.810;8.342;2023-04-30T10:22:35;1.27;;;1.17;;
5805;SDS011;2929;50.810;8.342;2023-04-30T10:25:03;2.03;;;1.40;;
5805;SDS011;2929;50.810;8.342;2023-04-30T10:27:31;1.07;;;0.97;;
5805;SDS011;2929;50.810;8.342;2023-04-30T10:29:59;1.67;;;0.80;;
5805;SDS011;2929;50.810;8.342;2023-04-30T10:32:29;6.40;;;0.77;;
5805;SDS011;2929;50.810;8.342;2023-04-30T10:35:05;0.93;;;0.73;;
5805;SDS011;2929;50.810;8.342;2023-04-30T10:37:38;0.83;;;0.70;;
5805;SDS011;2929;50.810;8.342;2023-04-30T10:40:12;0.83;;;0.70;;
5805;SDS011;2929;50.810;8.342;2023-04-30T10:42:44;0.60;;;0.60;;
5805;SDS011;2929;50.810;8.342;2023-04-30T10:45:13;1.47;;;0.87;;
5805;SDS011;2929;50.810;8.342;2023-04-30T10:47:41;0.80;;;0.80;;
5805;SDS011;2929;50.810;8.342;2023-04-30T10:50:10;1.00;;;0.70;;
5805;SDS011;2929;50.810;8.342;2023-04-30T10:52:38;0.50;;;0.50;;
5805;SDS011;2929;50.810;8.342;2023-04-30T10:55:06;0.80;;;0.80;;
5805;SDS011;2929;50.810;8.342;2023-04-30T10:57:39;0.80;;;0.80;;
5805;SDS011;2929;50.810;8.342;2023-04-30T11:00:18;1.33;;;0.80;;
5805;SDS011;2929;50.810;8.342;2023-04-30T11:02:46;0.67;;;0.67;;
5805;SDS011;2929;50.810;8.342;2023-04-30T11:05:14;1.53;;;0.93;;
5805;SDS011;2929;50.810;8.342;2023-04-30T11:07:46;2.20;;;1.27;;
5805;SDS011;2929;50.810;8.342;2023-04-30T11:10:14;0.90;;;0.90;;
5805;SDS011;2929;50.810;8.342;2023-04-30T11:12:46;1.47;;;0.90;;
5805;SDS011;2929;50.810;8.342;2023-04-30T11:15:14;1.10;;;0.90;;
5805;SDS011;2929;50.810;8.342;2023-04-30T11:17:46;1.40;;;1.30;;
5805;SDS011;2929;50.810;8.342;2023-04-30T11:20:17;1.23;;;1.00;;
5805;SDS011;2929;50.810;8.342;2023-04-30T11:22:45;0.90;;;0.80;;
5805;SDS011;2929;50.810;8.342;2023-04-30T11:25:14;0.93;;;0.93;;
5805;SDS011;2929;50.810;8.342;2023-04-30T11:27:44;1.17;;;1.00;;
5805;SDS011;2929;50.810;8.342;2023-04-30T11:30:12;4.80;;;1.60;;
5805;SDS011;2929;50.810;8.342;2023-04-30T11:32:41;1.30;;;1.20;;
5805;SDS011;2929;50.810;8.342;2023-04-30T11:35:12;1.77;;;1.20;;
5805;SDS011;2929;50.810;8.342;2023-04-30T11:37:42;2.60;;;1.23;;
5805;SDS011;2929;50.810;8.342;2023-04-30T11:40:10;1.30;;;1.20;;
5805;SDS011;2929;50.810;8.342;2023-04-30T11:42:39;4.20;;;1.10;;
5805;SDS011;2929;50.810;8.342;2023-04-30T11:45:08;1.30;;;1.10;;
5805;SDS011;2929;50.810;8.342;2023-04-30T11:47:41;1.47;;;1.00;;
5805;SDS011;2929;50.810;8.342;2023-04-30T11:50:09;0.87;;;0.70;;
5805;SDS011;2929;50.810;8.342;2023-04-30T11:52:39;1.33;;;1.00;;
5805;SDS011;2929;50.810;8.342;2023-04-30T11:55:11;0.93;;;0.93;;
5805;SDS011;2929;50.810;8.342;2023-04-30T11:57:41;1.40;;;1.30;;
5805;SDS011;2929;50.810;8.342;2023-04-30T12:00:12;1.13;;;1.00;;
5805;SDS011;2929;50.810;8.342;2023-04-30T12:02:40;2.00;;;1.30;;
5805;SDS011;2929;50.810;8.342;2023-04-30T12:05:14;1.53;;;1.23;;
5805;SDS011;2929;50.810;8.342;2023-04-30T12:07:46;3.10;;;1.47;;
5805;SDS011;2929;50.810;8.342;2023-04-30T12:10:14;1.10;;;0.97;;
5805;SDS011;2929;50.810;8.342;2023-04-30T12:12:42;1.90;;;0.90;;
5805;SDS011;2929;50.810;8.342;2023-04-30T12:15:10;2.27;;;1.00;;
5805;SDS011;2929;50.810;8.342;2023-04-30T12:17:38;7.17;;;2.50;;
5805;SDS011;2929;50.810;8.342;2023-04-30T12:20:05;3.60;;;1.40;;
5805;SDS011;2929;50.810;8.342;2023-04-30T12:22:35;6.10;;;1.47;;
5805;SDS011;2929;50.810;8.342;2023-04-30T12:25:04;6.63;;;1.30;;
5805;SDS011;2929;50.810;8.342;2023-04-30T12:27:34;7.90;;;1.17;;
5805;SDS011;2929;50.810;8.342;2023-04-30T12:30:02;4.10;;;1.20;;
5805;SDS011;2929;50.810;8.342;2023-04-30T12:32:35;1.10;;;1.00;;
5805;SDS011;2929;50.810;8.342;2023-04-30T12:35:07;3.07;;;1.50;;
5805;SDS011;2929;50.810;8.342;2023-04-30T12:37:41;1.53;;;1.43;;
5805;SDS011;2929;50.810;8.342;2023-04-30T12:40:10;1.47;;;1.37;;
5805;SDS011;2929;50.810;8.342;2023-04-30T12:42:40;11.23;;;1.70;;
5805;SDS011;2929;50.810;8.342;2023-04-30T12:45:09;1.13;;;1.03;;
5805;SDS011;2929;50.810;8.342;2023-04-30T12:47:37;1.43;;;1.33;;
5805;SDS011;2929;50.810;8.342;2023-04-30T12:50:08;2.40;;;1.30;;
5805;SDS011;2929;50.810;8.342;2023-04-30T12:52:37;1.50;;;1.40;;
5805;SDS011;2929;50.810;8.342;2023-04-30T12:55:20;2.73;;;1.27;;
5805;SDS011;2929;50.810;8.342;2023-04-30T12:58:04;1.30;;;1.20;;
5805;SDS011;2929;50.810;8.342;2023-04-30T13:00:42;1.10;;;0.90;;
5805;SDS011;2929;50.810;8.342;2023-04-30T13:03:10;1.40;;;1.00;;
5805;SDS011;2929;50.810;8.342;2023-04-30T13:05:37;3.97;;;1.10;;
5805;SDS011;2929;50.810;8.342;2023-04-30T13:08:05;2.10;;;1.90;;
5805;SDS011;2929;50.810;8.342;2023-04-30T13:10:35;3.20;;;1.90;;
5805;SDS011;2929;50.810;8.342;2023-04-30T13:13:02;3.77;;;1.40;;
5805;SDS011;2929;50.810;8.342;2023-04-30T13:15:30;1.30;;;1.00;;
5805;SDS011;2929;50.810;8.342;2023-04-30T13:17:57;0.90;;;0.90;;
5805;SDS011;2929;50.810;8.342;2023-04-30T13:20:24;1.30;;;1.00;;
5805;SDS011;2929;50.810;8.342;2023-04-30T13:22:51;1.37;;;0.77;;
5805;SDS011;2929;50.810;8.342;2023-04-30T13:25:18;1.40;;;1.30;;
5805;SDS011;2929;50.810;8.342;2023-04-30T13:27:47;0.70;;;0.70;;
5805;SDS011;2929;50.810;8.342;2023-04-30T13:30:14;2.30;;;1.10;;
5805;SDS011;2929;50.810;8.342;2023-04-30T13:32:42;1.10;;;0.90;;
5805;SDS011;2929;50.810;8.342;2023-04-30T13:35:10;0.90;;;0.90;;
5805;SDS011;2929;50.810;8.342;2023-04-30T13:37:37;2.67;;;0.87;;
5805;SDS011;2929;50.810;8.342;2023-04-30T13:40:05;2.40;;;1.20;;
5805;SDS011;2929;50.810;8.342;2023-04-30T13:42:35;4.13;;;0.90;;
5805;SDS011;2929;50.810;8.342;2023-04-30T13:45:05;2.73;;;1.00;;
5805;SDS011;2929;50.810;8.342;2023-04-30T13:47:33;0.80;;;0.80;;
5805;SDS011;2929;50.810;8.342;2023-04-30T13:50:00;1.50;;;0.90;;
5805;SDS011;2929;50.810;8.342;2023-04-30T13:52:27;9.10;;;5.33;;
5805;SDS011;2929;50.810;8.342;2023-04-30T13:54:55;1.60;;;0.90;;
5805;SDS011;2929;50.810;8.342;2023-04-30T13:57:22;0.80;;;0.80;;
5805;SDS011;2929;50.810;8.342;2023-04-30T13:59:49;0.90;;;0.90;;
5805;SDS011;2929;50.810;8.342;2023-04-30T14:02:18;0.80;;;0.80;;
5805;SDS011;2929;50.810;8.342;2023-04-30T14:04:45;0.80;;;0.80;;
5805;SDS011;2929;50.810;8.342;2023-04-30T14:07:12;1.00;;;0.80;;
5805;SDS011;2929;50.810;8.342;2023-04-30T14:09:39;1.17;;;0.90;;
5805;SDS011;2929;50.810;8.342;2023-04-30T14:12:06;1.10;;;1.00;;
5805;SDS011;2929;50.810;8.342;2023-04-30T14:14:33;0.80;;;0.80;;
5805;SDS011;2929;50.810;8.342;2023-04-30T14:17:00;0.70;;;0.70;;
5805;SDS011;2929;50.810;8.342;2023-04-30T14:19:30;1.10;;;1.00;;
5805;SDS011;2929;50.810;8.342;2023-04-30T14:21:57;1.13;;;0.77;;
5805;SDS011;2929;50.810;8.342;2023-04-30T14:24:24;0.80;;;0.80;;
5805;SDS011;2929;50.810;8.342;2023-04-30T14:26:52;0.70;;;0.70;;
5805;SDS011;2929;50.810;8.342;2023-04-30T14:29:19;1.70;;;1.03;;
5805;SDS011;2929;50.810;8.342;2023-04-30T14:31:46;2.80;;;1.00;;
5805;SDS011;2929;50.810;8.342;2023-04-30T14:34:13;1.00;;;0.90;;
5805;SDS011;2929;50.810;8.342;2023-04-30T14:36:41;5.03;;;1.10;;
5805;SDS011;2929;50.810;8.342;2023-04-30T14:39:08;7.17;;;1.03;;
5805;SDS011;2929;50.810;8.342;2023-04-30T14:41:35;0.70;;;0.70;;
5805;SDS011;2929;50.810;8.342;2023-04-30T14:44:03;0.97;;;0.87;;
5805;SDS011;2929;50.810;8.342;2023-04-30T14:46:30;0.90;;;0.70;;
5805;SDS011;2929;50.810;8.342;2023-04-30T14:48:58;1.17;;;0.97;;
5805;SDS011;2929;50.810;8.342;2023-04-30T14:51:25;1.00;;;0.90;;
5805;SDS011;2929;50.810;8.342;2023-04-30T14:53:54;0.80;;;0.80;;
5805;SDS011;2929;50.810;8.342;2023-04-30T14:56:22;0.70;;;0.70;;
5805;SDS011;2929;50.810;8.342;2023-04-30T14:58:49;1.53;;;1.10;;
5805;SDS011;2929;50.810;8.342;2023-04-30T15:01:16;0.80;;;0.80;;
5805;SDS011;2929;50.810;8.342;2023-04-30T15:03:43;1.40;;;0.80;;
5805;SDS011;2929;50.810;8.342;2023-04-30T15:06:10;0.80;;;0.80;;
5805;SDS011;2929;50.810;8.342;2023-04-30T15:08:38;0.93;;;0.83;;